Time;durP1;ratioP1;P1;durP2;ratioP2;P2;SDS_P1;SDS_P2;PMS_P1;PMS_P2;Temp;Humidity;BMP_temperature;BMP_pressure;BME280_temperature;BME280_humidity;BME280_pressure;Samples;Min_cycle;Max_cycle;Signal;HPM_P1;HPM_P2
2023/03/30 00:03:48;;;;;;;7.13;3.50;;;;;;;7.29;100.00;96211.28;10408203;28;20193;-74
2023/03/30 00:08:52;;;;;;;6.90;3.40;;;;;;;7.37;100.00;96218.34;10407815;28;20193;-74
2023/03/30 00:13:52;;;;;;;5.23;3.00;;;;;;;7.37;100.00;96213.13;10408030;28;20220;-74
2023/03/30 00:18:53;;;;;;;4.00;3.00;;;;;;;7.32;100.00;96211.78;10407309;28;20197;-75
2023/03/30 00:23:53;;;;;;;4.17;2.80;;;;;;;7.30;100.00;96210.28;10408495;28;20224;-74
2023/03/30 00:28:53;;;;;;;4.13;2.80;;;;;;;7.44;100.00;96196.75;10406460;28;20629;-74
2023/03/30 00:33:55;;;;;;;4.97;2.50;;;;;;;7.35;100.00;96200.25;10406739;28;20254;-74
2023/03/30 00:38:55;;;;;;;4.83;2.57;;;;;;;7.55;100.00;96150.56;10390291;28;20270;-74
2023/03/30 00:44:01;;;;;;;3.63;2.40;;;;;;;7.26;100.00;96117.78;10407345;28;20200;-74
2023/03/30 00:49:05;;;;;;;5.23;2.47;;;;;;;7.28;100.00;96095.00;10407885;28;20192;-74
2023/03/30 00:54:13;;;;;;;4.90;2.53;;;;;;;7.27;100.00;96093.34;10389421;28;20224;-73
2023/03/30 00:59:13;;;;;;;4.27;2.83;;;;;;;7.32;100.00;96138.84;10405771;28;20563;-74
2023/03/30 01:04:15;;;;;;;4.27;2.40;;;;;;;7.45;100.00;96125.41;10405900;28;20192;-74
2023/03/30 01:09:17;;;;;;;4.40;2.53;;;;;;;7.52;100.00;96111.78;10407171;28;20696;-74
2023/03/30 01:14:18;;;;;;;4.70;2.50;;;;;;;7.74;100.00;96080.00;10407064;28;20216;-74
2023/03/30 01:19:42;;;;;;;5.53;2.33;;;;;;;7.85;100.00;96076.28;10411243;28;20231;-73
2023/03/30 01:25:08;;;;;;;4.20;2.43;;;;;;;7.88;100.00;96062.94;10413197;28;20558;-74
2023/03/30 01:30:14;;;;;;;5.43;2.43;;;;;;;7.68;100.00;96046.72;10413180;28;20188;-73
2023/03/30 01:35:56;;;;;;;6.80;2.30;;;;;;;7.55;100.00;96012.41;10396486;28;20270;-73
2023/03/30 01:41:08;;;;;;;3.07;2.20;;;;;;;7.67;100.00;96013.78;10395624;28;20315;-74
2023/03/30 01:46:23;;;;;;;4.73;2.30;;;;;;;7.67;100.00;96004.19;10396771;28;20188;-73
2023/03/30 01:51:38;;;;;;;3.27;2.07;;;;;;;7.93;100.00;95985.06;10396808;28;20620;-73
2023/03/30 01:56:47;;;;;;;5.13;2.20;;;;;;;7.92;100.00;95967.78;10412613;28;20567;-73
2023/03/30 02:01:49;;;;;;;5.27;2.40;;;;;;;7.93;100.00;95963.38;10412073;28;20188;-73
2023/03/30 02:06:55;;;;;;;6.00;2.93;;;;;;;7.94;100.00;95965.00;10395758;28;20271;-73
2023/03/30 02:11:55;;;;;;;8.77;3.10;;;;;;;7.87;100.00;95975.25;10411952;28;20213;-73
2023/03/30 02:17:02;;;;;;;5.27;3.33;;;;;;;7.83;100.00;95974.75;10411847;28;20193;-73
2023/03/30 02:22:05;;;;;;;6.37;3.17;;;;;;;7.75;100.00;95961.69;10377837;28;20208;-73
2023/03/30 02:27:05;;;;;;;9.07;4.07;;;;;;;7.71;100.00;95960.38;10394823;28;20529;-73
2023/03/30 02:32:15;;;;;;;8.17;4.10;;;;;;;7.67;100.00;95944.25;10409939;28;20224;-73
2023/03/30 02:37:29;;;;;;;6.63;4.27;;;;;;;7.51;100.00;95954.59;10410598;28;20598;-73
2023/03/30 02:42:57;;;;;;;11.40;4.87;;;;;;;7.50;100.00;95938.16;10410315;28;20620;-74
2023/03/30 02:48:16;;;;;;;11.80;5.13;;;;;;;7.54;100.00;95925.59;10400024;28;20719;-74
2023/03/30 02:53:30;;;;;;;8.67;5.10;;;;;;;7.56;100.00;95917.63;10433794;28;20224;-74
2023/03/30 02:58:36;;;;;;;6.73;3.77;;;;;;;7.64;100.00;95894.19;10434511;28;20249;-74
2023/03/30 03:03:47;;;;;;;8.20;4.47;;;;;;;7.66;100.00;95887.03;10431208;28;20188;-73
2023/03/30 03:08:48;;;;;;;11.10;4.97;;;;;;;7.62;100.00;95878.72;10410087;28;20199;-74
2023/03/30 03:13:55;;;;;;;9.20;5.03;;;;;;;7.60;100.00;95838.97;10426595;28;20641;-74
2023/03/30 03:18:56;;;;;;;10.27;4.37;;;;;;;7.70;100.00;95825.78;10426052;28;20195;-73
2023/03/30 03:23:57;;;;;;;5.80;3.97;;;;;;;7.75;100.00;95836.56;10425584;28;20217;-74
2023/03/30 03:29:07;;;;;;;8.50;4.47;;;;;;;7.83;100.00;95830.53;10426148;28;20277;-74
2023/03/30 03:34:07;;;;;;;15.33;7.53;;;;;;;7.83;100.00;95823.53;10425244;28;20216;-73
2023/03/30 03:39:25;;;;;;;13.30;4.83;;;;;;;7.83;100.00;95818.31;10426189;28;20731;-73
2023/03/30 03:44:30;;;;;;;7.97;5.27;;;;;;;7.71;100.00;95816.19;10425671;28;20281;-73
2023/03/30 03:49:31;;;;;;;8.53;5.60;;;;;;;7.75;99.86;95820.91;10425631;28;20196;-73
2023/03/30 03:54:31;;;;;;;11.00;5.90;;;;;;;7.74;99.55;95824.50;10425390;28;20763;-73
2023/03/30 03:59:32;;;;;;;14.37;6.27;;;;;;;7.68;99.72;95825.13;10425092;28;20233;-74
2023/03/30 04:04:32;;;;;;;7.73;5.23;;;;;;;7.67;100.00;95821.72;10413932;28;20192;-74
2023/03/30 04:09:33;;;;;;;12.97;6.13;;;;;;;7.60;100.00;95833.75;10448376;28;20828;-74
2023/03/30 04:14:48;;;;;;;6.07;4.20;;;;;;;7.70;99.06;95840.59;10431344;28;20223;-73
2023/03/30 04:20:22;;;;;;;13.03;6.03;;;;;;;7.60;99.34;95827.72;10431043;28;20232;-74
2023/03/30 04:25:30;;;;;;;15.27;6.47;;;;;;;7.56;100.00;95834.22;10416041;28;20194;-74
2023/03/30 04:30:44;;;;;;;11.83;5.33;;;;;;;7.65;99.30;95830.66;10416803;28;20192;-74
2023/03/30 04:36:19;;;;;;;11.13;5.60;;;;;;;7.68;99.07;95840.78;10431531;28;20202;-76
2023/03/30 04:41:34;;;;;;;11.83;5.90;;;;;;;7.68;99.72;95864.22;10430788;28;20235;-74
2023/03/30 04:46:55;;;;;;;8.47;4.30;;;;;;;7.85;98.00;95841.59;10417498;28;20691;-74
2023/03/30 04:52:14;;;;;;;6.83;4.67;;;;;;;7.91;97.57;95837.56;10435188;28;20591;-74
2023/03/30 04:57:34;;;;;;;10.30;5.00;;;;;;;7.92;97.53;95849.63;10456641;28;20625;-73
2023/03/30 05:03:00;;;;;;;10.43;4.90;;;;;;;8.06;97.19;95854.19;10455894;28;20219;-74
2023/03/30 05:08:33;;;;;;;8.63;3.27;;;;;;;8.50;95.67;95837.41;10456385;28;20241;-74
2023/03/30 05:13:54;;;;;;;12.13;3.47;;;;;;;8.68;94.01;95835.44;10437934;28;20335;-74
2023/03/30 05:19:05;;;;;;;7.97;3.73;;;;;;;8.71;94.51;95829.88;10437640;28;20188;-74
2023/03/30 05:24:28;;;;;;;5.60;2.73;;;;;;;9.01;92.51;95816.25;10441282;28;20238;-74
2023/03/30 05:29:46;;;;;;;5.50;2.83;;;;;;;9.35;90.70;95802.06;10437435;28;20222;-74
2023/03/30 05:34:58;;;;;;;6.53;2.50;;;;;;;9.71;88.13;95786.66;10436996;28;20222;-74
2023/03/30 05:40:19;;;;;;;6.30;2.70;;;;;;;9.89;87.07;95768.06;10413564;28;20237;-74
2023/03/30 05:45:42;;;;;;;11.27;2.40;;;;;;;10.25;84.53;95758.75;10436491;28;20245;-73
2023/03/30 05:51:03;;;;;;;4.97;2.47;;;;;;;10.25;84.63;95761.38;10454368;28;20231;-73
2023/03/30 05:56:26;;;;;;;12.63;3.13;;;;;;;10.60;81.59;95754.66;10421975;28;20282;-74
2023/03/30 06:01:50;;;;;;;7.73;2.73;;;;;;;10.83;80.41;95749.31;10438949;28;20187;-74
2023/03/30 06:06:51;;;;;;;19.83;12.07;;;;;;;10.87;80.37;95783.81;10434909;28;20188;-74
2023/03/30 06:11:52;;;;;;;4.10;2.17;;;;;;;11.16;78.39;95769.88;10420036;28;20244;-74
2023/03/30 06:16:56;;;;;;;6.47;5.07;;;;;;;11.16;77.99;95769.06;10435139;28;20557;-74
2023/03/30 06:21:57;;;;;;;6.45;2.58;;;;;;;11.30;77.11;95776.13;10435311;28;20198;-74
2023/03/30 06:27:13;;;;;;;9.60;2.03;;;;;;;11.37;77.38;95766.50;10435355;28;20271;-74
2023/03/30 06:32:14;;;;;;;13.98;2.63;;;;;;;11.24;77.66;95774.22;10434882;28;20220;-74
2023/03/30 06:37:20;;;;;;;12.32;2.10;;;;;;;11.16;79.34;95801.34;10452924;28;20711;-75
2023/03/30 06:42:26;;;;;;;8.32;1.90;;;;;;;11.20;78.93;95796.56;10434432;28;20246;-75
2023/03/30 06:47:48;;;;;;;12.60;2.63;;;;;;;11.24;78.33;95780.28;10434715;28;20199;-74
2023/03/30 06:52:51;;;;;;;9.40;2.33;;;;;;;11.27;78.95;95765.16;10433857;28;20212;-74
2023/03/30 06:57:52;;;;;;;13.13;5.55;;;;;;;11.28;79.88;95766.81;10450842;28;20188;-75
2023/03/30 07:02:53;;;;;;;9.85;2.35;;;;;;;11.24;81.70;95771.63;10430280;28;20640;-74
2023/03/30 07:08:00;;;;;;;4.72;2.33;;;;;;;11.18;82.60;95783.63;10433667;28;20334;-75
2023/03/30 07:13:00;;;;;;;4.00;1.70;;;;;;;11.02;85.33;95802.97;10451584;28;20241;-76
2023/03/30 07:18:03;;;;;;;12.82;2.47;;;;;;;11.25;85.06;95788.94;10433052;28;20192;-75
2023/03/30 07:23:03;;;;;;;10.95;2.08;;;;;;;11.26;86.07;95785.34;10451114;28;20275;-75
2023/03/30 07:28:07;;;;;;;13.70;2.42;;;;;;;11.20;88.03;95781.63;10430066;28;20605;-75
2023/03/30 07:33:08;;;;;;;6.60;2.25;;;;;;;11.56;88.42;95780.00;10432797;28;20211;-74
2023/03/30 07:38:08;;;;;;;9.27;2.20;;;;;;;11.67;88.73;95781.31;10423099;28;20228;-75
2023/03/30 07:43:13;;;;;;;9.10;2.45;;;;;;;12.09;88.42;95777.94;10391636;28;20217;-75
2023/03/30 07:48:15;;;;;;;8.10;2.50;;;;;;;12.76;84.96;95744.25;10408746;28;20780;-75
2023/03/30 07:53:15;;;;;;;3.60;2.10;;;;;;;13.27;83.67;95745.69;10449758;28;20216;-75
2023/03/30 07:58:17;;;;;;;10.18;2.55;;;;;;;13.18;81.47;95716.13;10417500;28;20768;-74
2023/03/30 08:03:20;;;;;;;5.60;1.70;;;;;;;13.48;80.81;95707.13;10414615;28;20274;-75
2023/03/30 08:08:21;;;;;;;9.23;2.03;;;;;;;13.82;79.46;95663.22;10431883;28;20196;-75
2023/03/30 08:13:21;;;;;;;7.38;2.17;;;;;;;14.49;76.53;95674.50;10431060;28;20215;-74
2023/03/30 08:18:22;;;;;;;4.30;2.00;;;;;;;14.38;75.43;95649.59;10430964;28;20218;-74
2023/03/30 08:23:22;;;;;;;4.47;2.22;;;;;;;14.33;73.62;95641.47;10437709;28;20669;-74
2023/03/30 08:28:23;;;;;;;8.30;2.00;;;;;;;14.06;74.35;95632.84;10429976;28;20664;-75
2023/03/30 08:33:24;;;;;;;7.93;1.95;;;;;;;14.22;73.75;95627.13;10422268;28;20751;-75
2023/03/30 08:38:24;;;;;;;10.27;2.03;;;;;;;14.49;72.64;95613.09;10423828;28;20588;-75
2023/03/30 08:43:44;;;;;;;6.05;2.33;;;;;;;14.57;70.91;95610.19;10418745;28;20280;-74
2023/03/30 08:48:45;;;;;;;8.25;2.20;;;;;;;14.20;71.82;95607.28;10411583;28;20675;-74
2023/03/30 08:53:55;;;;;;;5.03;2.03;;;;;;;14.09;72.94;95656.94;10443484;28;20228;-75
2023/03/30 08:59:17;;;;;;;9.38;2.22;;;;;;;14.00;72.24;95645.00;10423949;28;20243;-75
2023/03/30 09:04:26;;;;;;;6.38;2.60;;;;;;;13.66;73.65;95667.06;10430874;28;20196;-75
2023/03/30 09:09:29;;;;;;;5.97;2.20;;;;;;;13.49;74.39;95688.50;10426679;28;20203;-75
2023/03/30 09:14:38;;;;;;;8.00;2.75;;;;;;;13.31;75.12;95712.72;10413360;28;20223;-75
2023/03/30 09:19:48;;;;;;;4.45;2.30;;;;;;;13.18;75.44;95724.03;10430478;28;20318;-75
2023/03/30 09:24:50;;;;;;;9.10;2.80;;;;;;;13.37;75.66;95742.72;10428754;28;20241;-75
2023/03/30 09:29:53;;;;;;;8.75;3.08;;;;;;;12.90;80.79;95823.19;10447532;28;20192;-75
2023/03/30 09:34:59;;;;;;;9.18;3.13;;;;;;;12.23;87.01;95881.25;10447433;28;20323;-76
2023/03/30 09:40:08;;;;;;;7.47;2.90;;;;;;;11.87;96.22;95882.09;10434158;28;20709;-76
2023/03/30 09:45:16;;;;;;;7.03;2.78;;;;;;;11.58;100.00;95878.50;10436862;28;20196;-76
2023/03/30 09:50:27;;;;;;;4.82;2.50;;;;;;;11.37;100.00;95873.22;10421905;28;20192;-75
2023/03/30 09:55:30;;;;;;;13.57;3.60;;;;;;;10.96;100.00;95871.84;10438926;28;20568;-75
2023/03/30 10:00:32;;;;;;;9.45;3.35;;;;;;;10.83;100.00;95877.72;10450393;28;20204;-75
2023/03/30 10:05:34;;;;;;;6.50;2.70;;;;;;;10.63;100.00;95897.56;10435624;28;20188;-75
2023/03/30 10:10:36;;;;;;;9.50;3.53;;;;;;;10.41;100.00;95880.84;10452663;28;20188;-74
2023/03/30 10:15:39;;;;;;;11.10;3.23;;;;;;;10.31;100.00;95904.63;10451808;28;20232;-75
2023/03/30 10:20:40;;;;;;;6.27;2.93;;;;;;;10.25;100.00;95903.53;10445495;28;20195;-76
2023/03/30 10:25:42;;;;;;;9.67;3.50;;;;;;;10.10;100.00;95885.13;10431251;28;20740;-76
2023/03/30 10:30:50;;;;;;;6.00;2.40;;;;;;;9.93;100.00;95873.97;10398790;28;20537;-76
2023/03/30 10:35:55;;;;;;;4.73;2.00;;;;;;;9.94;100.00;95880.03;10414712;28;20196;-76
2023/03/30 10:41:01;;;;;;;7.73;1.93;;;;;;;9.89;100.00;95864.84;10451465;28;20276;-76
2023/03/30 10:46:13;;;;;;;4.60;2.30;;;;;;;9.91;100.00;95848.97;10434687;28;20195;-76
2023/03/30 10:51:44;;;;;;;2.40;1.23;;;;;;;10.03;100.00;95836.28;10450558;28;20246;-76
2023/03/30 10:56:48;;;;;;;2.43;1.80;;;;;;;9.97;100.00;95848.28;10451641;28;20609;-75
2023/03/30 11:01:52;;;;;;;3.87;1.50;;;;;;;10.16;100.00;95836.53;10433829;28;20235;-75
2023/03/30 11:06:56;;;;;;;2.40;1.37;;;;;;;10.16;100.00;95792.03;10450293;28;20275;-76
2023/03/30 11:12:04;;;;;;;2.60;1.30;;;;;;;10.27;100.00;95781.13;10433239;28;20219;-75
2023/03/30 11:17:10;;;;;;;3.77;1.37;;;;;;;10.52;100.00;95796.63;10433805;28;20573;-76
2023/03/30 11:22:35;;;;;;;3.95;1.40;;;;;;;10.68;100.00;95767.66;10448202;28;20647;-75
2023/03/30 11:27:49;;;;;;;1.02;0.93;;;;;;;10.77;100.00;95785.94;10450097;28;20184;-75
2023/03/30 11:32:55;;;;;;;5.55;1.40;;;;;;;10.85;100.00;95798.94;10448562;28;20298;-75
2023/03/30 11:38:04;;;;;;;5.75;1.60;;;;;;;11.10;100.00;95801.25;10407297;28;20235;-75
2023/03/30 11:43:06;;;;;;;1.95;1.38;;;;;;;11.52;100.00;95789.25;10390910;28;20283;-75
2023/03/30 11:48:25;;;;;;;3.97;1.60;;;;;;;11.90;100.00;95781.19;10391185;28;20196;-75
2023/03/30 11:53:57;;;;;;;4.90;1.77;;;;;;;12.23;100.00;95764.91;10407427;28;20216;-75
2023/03/30 11:59:05;;;;;;;2.25;1.90;;;;;;;12.67;100.00;95753.28;10408226;28;20600;-74
2023/03/30 12:04:14;;;;;;;5.47;1.60;;;;;;;12.61;97.62;95725.16;10396809;28;20675;-73
2023/03/30 12:09:32;;;;;;;2.83;1.55;;;;;;;12.92;94.72;95740.47;10408590;28;20196;-75
2023/03/30 12:14:57;;;;;;;4.93;1.95;;;;;;;13.16;90.95;95691.84;10407436;28;20574;-74
2023/03/30 12:20:47;;;;;;;4.88;3.20;;;;;;;13.22;89.98;95657.88;10398129;28;20196;-74
2023/03/30 12:26:00;;;;;;;3.47;2.30;;;;;;;13.67;88.42;95660.78;10369203;28;20213;-74
2023/03/30 12:31:01;;;;;;;3.22;2.03;;;;;;;13.63;86.78;95638.50;10389800;28;20592;-75
2023/03/30 12:36:39;;;;;;;4.57;2.30;;;;;;;13.46;87.97;95638.94;10428343;28;20250;-75
2023/03/30 12:41:47;;;;;;;3.40;1.95;;;;;;;13.70;87.40;95639.31;10402674;28;20219;-74
2023/03/30 12:47:03;;;;;;;3.92;2.15;;;;;;;13.55;85.78;95618.47;10431743;28;20616;-74
2023/03/30 12:52:12;;;;;;;4.78;2.60;;;;;;;13.72;86.89;95632.03;10446635;28;20282;-74
2023/03/30 12:57:16;;;;;;;4.85;2.60;;;;;;;14.00;83.59;95618.66;10446298;28;20675;-75
2023/03/30 13:02:43;;;;;;;4.30;2.47;;;;;;;13.90;83.31;95619.09;10440854;28;20200;-77
2023/03/30 13:07:44;;;;;;;6.78;2.90;;;;;;;14.52;82.08;95610.03;10425532;28;20731;-75
2023/03/30 13:12:48;;;;;;;9.80;3.10;;;;;;;12.95;84.96;95650.72;10484652;28;20247;-75
2023/03/30 13:18:08;;;;;;;3.90;2.72;;;;;;;13.31;86.80;95646.16;10482133;28;20237;-77
2023/03/30 13:23:08;;;;;;;3.13;2.10;;;;;;;13.98;81.63;95594.38;10453560;28;20198;-76
2023/03/30 13:28:33;;;;;;;3.47;2.10;;;;;;;13.66;83.54;95614.41;10448594;28;20864;-76
2023/03/30 13:33:36;;;;;;;5.07;2.22;;;;;;;12.99;85.78;95622.22;10457577;28;20753;-75
2023/03/30 13:38:54;;;;;;;5.03;2.70;;;;;;;13.09;87.71;95651.56;10416791;28;20231;-76
2023/03/30 13:44:19;;;;;;;4.80;2.35;;;;;;;13.20;86.93;95656.25;10436188;28;20670;-77
2023/03/30 13:49:43;;;;;;;4.05;1.98;;;;;;;13.10;87.32;95637.41;10414145;28;20230;-76
2023/03/30 13:54:45;;;;;;;5.90;2.38;;;;;;;13.17;86.02;95619.84;10395046;28;20267;-75
2023/03/30 13:59:57;;;;;;;4.53;1.90;;;;;;;13.44;85.41;95627.78;10421347;28;20210;-74
2023/03/30 14:05:20;;;;;;;4.93;2.78;;;;;;;13.43;86.93;95631.44;10434630;28;20185;-75
2023/03/30 14:10:21;;;;;;;2.65;1.80;;;;;;;13.70;84.98;95618.28;10442482;28;20211;-75
2023/03/30 14:15:31;;;;;;;4.45;2.63;;;;;;;14.57;82.90;95600.47;10436115;28;20216;-75
2023/03/30 14:20:42;;;;;;;4.53;1.90;;;;;;;15.09;79.13;95557.44;10413889;28;20224;-76
2023/03/30 14:25:43;;;;;;;4.00;2.65;;;;;;;15.51;76.60;95539.22;10486348;28;20274;-76
2023/03/30 14:30:54;;;;;;;7.45;2.70;;;;;;;15.55;78.02;95568.66;10459146;28;20191;-77
2023/03/30 14:35:56;;;;;;;6.45;2.97;;;;;;;14.72;78.45;95554.63;10429894;28;20311;-75
2023/03/30 14:40:57;;;;;;;6.20;2.47;;;;;;;14.02;79.92;95561.31;10394150;28;20762;-75
2023/03/30 14:46:01;;;;;;;6.63;3.53;;;;;;;14.61;79.02;95554.25;10441292;28;20216;-75
2023/03/30 14:51:06;;;;;;;5.32;2.25;;;;;;;15.34;75.56;95523.13;10434186;28;20191;-76
2023/03/30 14:56:08;;;;;;;2.72;2.10;;;;;;;14.64;76.49;95539.84;10451154;28;20196;-76
2023/03/30 15:01:11;;;;;;;4.07;1.67;;;;;;;13.94;78.66;95550.22;10433870;28;20192;-76
2023/03/30 15:06:14;;;;;;;3.25;2.30;;;;;;;14.09;78.46;95553.41;10421671;28;20283;-76
2023/03/30 15:11:26;;;;;;;3.33;1.67;;;;;;;13.01;81.29;95583.38;10424540;28;20211;-75
2023/03/30 15:16:28;;;;;;;5.90;2.10;;;;;;;13.09;83.21;95577.94;10447744;28;20249;-76
2023/03/30 15:21:31;;;;;;;5.10;2.15;;;;;;;13.04;83.34;95572.47;10450486;28;20563;-76
2023/03/30 15:26:31;;;;;;;4.45;1.90;;;;;;;13.41;81.80;95569.50;10432453;28;20227;-76
2023/03/30 15:31:32;;;;;;;5.43;2.10;;;;;;;14.25;75.40;95510.78;10456555;28;20245;-75
2023/03/30 15:36:32;;;;;;;5.80;2.50;;;;;;;15.69;69.74;95438.13;10428111;28;20231;-76
2023/03/30 15:41:45;;;;;;;4.57;1.98;;;;;;;14.42;73.24;95468.16;10428169;28;20688;-76
2023/03/30 15:46:56;;;;;;;7.03;1.88;;;;;;;13.85;76.19;95503.03;10403067;28;20683;-76
2023/03/30 15:52:23;;;;;;;9.13;2.22;;;;;;;13.00;79.73;95553.66;10420481;28;20219;-76
2023/03/30 15:57:28;;;;;;;2.72;1.23;;;;;;;11.04;82.10;95700.56;10414015;28;20180;-74
2023/03/30 16:02:31;;;;;;;1.75;1.05;;;;;;;9.79;100.00;95776.13;10429213;28;20195;-74
2023/03/30 16:07:32;;;;;;;3.07;1.10;;;;;;;8.88;100.00;95795.88;10446537;28;20744;-76
2023/03/30 16:12:33;;;;;;;3.47;1.10;;;;;;;8.03;100.00;95808.38;10448830;28;20222;-77
2023/03/30 16:17:33;;;;;;;3.50;1.27;;;;;;;7.78;100.00;95801.50;10449237;28;20184;-77
2023/03/30 16:22:34;;;;;;;1.90;1.13;;;;;;;7.63;100.00;95809.16;10450150;28;20210;-78
2023/03/30 16:27:35;;;;;;;2.13;1.43;;;;;;;7.67;100.00;95802.63;10432702;28;20196;-77
2023/03/30 16:32:35;;;;;;;1.43;1.17;;;;;;;7.77;100.00;95772.03;10448150;28;20222;-78
2023/03/30 16:37:36;;;;;;;3.10;1.00;;;;;;;7.76;100.00;95756.53;10450018;28;20703;-77
2023/03/30 16:42:36;;;;;;;1.00;0.90;;;;;;;7.79;100.00;95741.38;10428193;28;20683;-76
2023/03/30 16:47:37;;;;;;;2.13;1.07;;;;;;;7.74;100.00;95743.66;10426982;28;20691;-77
2023/03/30 16:52:37;;;;;;;1.20;1.10;;;;;;;7.77;100.00;95730.31;10416593;28;20703;-77
2023/03/30 16:57:37;;;;;;;2.27;0.90;;;;;;;7.74;100.00;95729.81;10416892;28;20209;-77
2023/03/30 17:02:38;;;;;;;2.63;1.33;;;;;;;7.78;100.00;95715.47;10405054;28;20334;-76
2023/03/30 17:07:38;;;;;;;1.63;0.90;;;;;;;7.78;100.00;95724.13;10434472;28;20180;-77
2023/03/30 17:12:40;;;;;;;2.23;1.60;;;;;;;7.80;100.00;95724.75;10434251;28;20271;-76
2023/03/30 17:17:40;;;;;;;1.83;1.67;;;;;;;7.99;100.00;95722.78;10431227;28;20196;-76
2023/03/30 17:22:41;;;;;;;4.20;2.10;;;;;;;8.08;100.00;95718.38;10436889;28;20199;-77
2023/03/30 17:27:41;;;;;;;2.83;1.10;;;;;;;8.21;100.00;95710.88;10428337;28;20591;-76
2023/03/30 17:32:42;;;;;;;2.60;1.00;;;;;;;8.26;100.00;95705.16;10396813;28;20635;-76
2023/03/30 17:37:43;;;;;;;2.33;1.07;;;;;;;8.34;100.00;95712.94;10414245;28;20240;-75
2023/03/30 17:42:43;;;;;;;1.13;0.70;;;;;;;8.25;100.00;95727.00;10414384;28;20776;-76
2023/03/30 17:47:44;;;;;;;0.93;0.87;;;;;;;8.17;100.00;95740.88;10414172;28;20193;-76
2023/03/30 17:52:45;;;;;;;2.57;0.90;;;;;;;8.09;100.00;95746.91;10396053;28;20244;-75
2023/03/30 17:57:46;;;;;;;2.53;1.10;;;;;;;8.08;100.00;95741.88;10414245;28;20196;-75
2023/03/30 18:02:46;;;;;;;4.77;3.33;;;;;;;7.96;100.00;95747.44;10413618;28;20188;-74
2023/03/30 18:07:47;;;;;;;1.70;1.60;;;;;;;8.01;100.00;95752.97;10413336;28;20251;-75
2023/03/30 18:13:40;;;;;;;3.63;0.93;;;;;;;7.81;100.00;95768.13;10425509;28;20223;-73
2023/03/30 18:18:41;;;;;;;1.90;1.30;;;;;;;7.82;100.00;95761.91;10420122;28;20219;-75
2023/03/30 18:23:41;;;;;;;1.20;0.87;;;;;;;7.80;100.00;95774.31;10453671;28;20196;-74
2023/03/30 18:28:42;;;;;;;1.50;0.80;;;;;;;7.79;100.00;95775.28;10439145;28;20199;-74
2023/03/30 18:33:42;;;;;;;3.47;1.60;;;;;;;7.68;100.00;95783.41;10452243;28;20307;-75
2023/03/30 18:38:43;;;;;;;1.37;0.90;;;;;;;7.67;100.00;95793.03;10453582;28;20301;-75
2023/03/30 18:43:43;;;;;;;6.20;3.67;;;;;;;7.65;100.00;95794.16;10449593;28;20212;-74
2023/03/30 18:48:43;;;;;;;1.23;1.13;;;;;;;7.69;100.00;95805.91;10453147;28;20339;-74
2023/03/30 18:53:44;;;;;;;3.10;1.00;;;;;;;7.63;100.00;95809.16;10452746;28;20220;-75
2023/03/30 18:58:44;;;;;;;3.80;1.20;;;;;;;7.63;100.00;95817.78;10427175;28;20232;-74
2023/03/30 19:03:45;;;;;;;1.87;1.20;;;;;;;7.69;100.00;95824.16;10411262;28;20218;-74
2023/03/30 19:08:46;;;;;;;5.50;1.27;;;;;;;7.56;100.00;95829.00;10410495;28;20184;-74
2023/03/30 19:13:46;;;;;;;3.43;2.40;;;;;;;7.64;100.00;95829.84;10410001;28;20228;-74
2023/03/30 19:18:48;;;;;;;2.40;1.40;;;;;;;7.65;100.00;95835.88;10410544;28;20200;-74
2023/03/30 19:23:49;;;;;;;2.73;1.80;;;;;;;7.62;100.00;95847.44;10410250;28;20659;-74
2023/03/30 19:28:49;;;;;;;13.27;8.83;;;;;;;7.62;100.00;95837.00;10410350;28;20275;-74
2023/03/30 19:33:49;;;;;;;9.27;3.67;;;;;;;7.64;100.00;95844.66;10409358;28;20235;-74
2023/03/30 19:38:50;;;;;;;8.60;3.43;;;;;;;7.54;100.00;95850.03;10409994;28;20236;-75
2023/03/30 19:43:50;;;;;;;3.10;2.27;;;;;;;7.57;100.00;95864.53;10409229;28;20291;-74
2023/03/30 19:48:50;;;;;;;5.77;4.07;;;;;;;7.55;100.00;95858.66;10409011;28;20196;-75
2023/03/30 19:53:51;;;;;;;2.73;1.63;;;;;;;7.50;100.00;95854.75;10409496;28;20221;-74
2023/03/30 19:58:51;;;;;;;3.73;1.27;;;;;;;7.46;100.00;95857.81;10409207;28;20196;-74
2023/03/30 20:03:52;;;;;;;3.37;1.50;;;;;;;7.52;100.00;95859.81;10408787;28;20188;-74
2023/03/30 20:08:53;;;;;;;4.73;2.10;;;;;;;7.46;100.00;95855.22;10409116;28;20200;-75
2023/03/30 20:13:54;;;;;;;3.00;1.93;;;;;;;7.46;100.00;95869.06;10437056;28;20273;-74
2023/03/30 20:18:56;;;;;;;2.30;1.53;;;;;;;7.53;100.00;95864.03;10449983;28;20347;-75
2023/03/30 20:23:58;;;;;;;2.57;1.30;;;;;;;7.43;100.00;95864.16;10448949;28;20725;-75
2023/03/30 20:28:59;;;;;;;2.90;1.10;;;;;;;7.45;100.00;95858.78;10450446;28;20207;-75
2023/03/30 20:34:00;;;;;;;3.03;1.40;;;;;;;7.33;100.00;95860.84;10415491;28;20208;-74
2023/03/30 20:39:00;;;;;;;3.10;0.90;;;;;;;7.34;100.00;95872.13;10450497;28;20322;-74
2023/03/30 20:44:02;;;;;;;1.40;1.00;;;;;;;7.31;100.00;95887.06;10450238;28;20593;-74
2023/03/30 20:49:06;;;;;;;2.23;1.10;;;;;;;7.26;100.00;95888.53;10450162;28;20203;-75
2023/03/30 20:54:07;;;;;;;2.30;1.27;;;;;;;7.24;100.00;95893.06;10450156;28;20226;-74
2023/03/30 20:59:07;;;;;;;2.80;1.27;;;;;;;7.19;100.00;95896.13;10449668;28;20211;-74
2023/03/30 21:04:08;;;;;;;3.50;1.20;;;;;;;7.37;100.00;95888.25;10449899;28;20551;-75
2023/03/30 21:09:08;;;;;;;5.40;1.47;;;;;;;7.40;100.00;95893.16;10449604;28;20731;-74
2023/03/30 21:14:10;;;;;;;2.00;0.90;;;;;;;7.62;100.00;95883.13;10449536;28;20711;-75
2023/03/30 21:19:10;;;;;;;1.23;1.03;;;;;;;7.67;100.00;95886.06;10449696;28;20556;-75
2023/03/30 21:24:12;;;;;;;4.87;1.17;;;;;;;7.64;100.00;95879.38;10449712;28;20181;-74
2023/03/30 21:29:12;;;;;;;3.00;1.20;;;;;;;7.72;100.00;95881.19;10431774;28;20289;-75
2023/03/30 21:34:13;;;;;;;4.50;1.13;;;;;;;7.50;100.00;95886.03;10450953;28;20374;-75
2023/03/30 21:39:13;;;;;;;7.33;1.43;;;;;;;7.63;100.00;95874.34;10457453;28;20338;-74
2023/03/30 21:44:14;;;;;;;2.03;1.10;;;;;;;7.56;100.00;95878.53;10455607;28;20196;-74
2023/03/30 21:49:14;;;;;;;2.30;1.30;;;;;;;7.30;100.00;95889.84;10457020;28;20188;-75
2023/03/30 21:54:16;;;;;;;2.17;1.03;;;;;;;7.49;100.00;95879.16;10456514;28;20316;-74
2023/03/30 21:59:17;;;;;;;2.53;1.10;;;;;;;7.53;100.00;95864.03;10422409;28;20207;-74
2023/03/30 22:04:18;;;;;;;6.67;1.43;;;;;;;7.28;100.00;95860.53;10454971;28;20196;-75
2023/03/30 22:09:18;;;;;;;3.80;1.20;;;;;;;7.38;100.00;95849.97;10438345;28;20222;-74
2023/03/30 22:14:18;;;;;;;4.07;1.23;;;;;;;7.48;100.00;95848.06;10453376;28;20262;-74
2023/03/30 22:19:21;;;;;;;2.17;1.00;;;;;;;7.52;100.00;95838.13;10455302;28;20188;-74
2023/03/30 22:24:21;;;;;;;4.47;1.50;;;;;;;7.44;100.00;95841.50;10455715;28;20554;-74
2023/03/30 22:29:22;;;;;;;2.70;1.13;;;;;;;7.53;100.00;95837.16;10437091;28;20276;-74
2023/03/30 22:34:22;;;;;;;2.90;1.10;;;;;;;7.64;100.00;95842.06;10454978;28;20231;-74
2023/03/30 22:39:23;;;;;;;3.07;1.43;;;;;;;7.63;100.00;95830.03;10436847;28;20331;-74
2023/03/30 22:44:23;;;;;;;4.37;1.10;;;;;;;7.75;100.00;95820.06;10454301;28;20184;-74
2023/03/30 22:49:24;;;;;;;6.03;1.73;;;;;;;7.91;100.00;95821.91;10454160;28;20191;-74
2023/03/30 22:54:24;;;;;;;3.87;1.53;;;;;;;8.00;100.00;95816.53;10454107;28;20310;-74
2023/03/30 22:59:24;;;;;;;4.43;1.23;;;;;;;8.04;100.00;95810.00;10454027;28;20275;-73
2023/03/30 23:04:26;;;;;;;4.73;1.30;;;;;;;8.00;100.00;95807.91;10442259;28;20729;-74
2023/03/30 23:09:27;;;;;;;2.33;1.20;;;;;;;8.01;100.00;95796.50;10453086;28;20188;-73
2023/03/30 23:14:28;;;;;;;4.63;1.07;;;;;;;7.91;100.00;95801.03;10453631;28;20382;-74
2023/03/30 23:19:28;;;;;;;6.20;1.20;;;;;;;7.98;100.00;95808.06;10435685;28;20199;-74
2023/03/30 23:24:28;;;;;;;6.17;1.57;;;;;;;8.03;100.00;95799.75;10453031;28;20188;-74
2023/03/30 23:29:29;;;;;;;3.37;1.40;;;;;;;8.17;100.00;95796.47;10453426;28;20199;-74
2023/03/30 23:34:30;;;;;;;6.10;1.63;;;;;;;8.17;100.00;95786.03;10452561;28;20310;-74
2023/03/30 23:39:31;;;;;;;3.50;1.60;;;;;;;8.04;100.00;95794.38;10434683;28;20579;-74
2023/03/30 23:44:32;;;;;;;3.00;1.00;;;;;;;8.08;100.00;95787.00;10452259;28;20281;-74